Kezdőlap
METAR-TAF:

METAR-TAF

Repülőterek :

Damaszkusz, Szíria

Damaszkuszi nemzetközi repülőtér

földrajzi szélesség: 33-25N, földrajzi hosszúság: 036-31E, magasság: 608 m

Jelenlegi meteorológiai megfigyelések

A jelentés 44 perccel ezelõtt készült, 00:00 UTC
Délkeleti szél 4 kt
Hőmérséklet 10°C
Páratartalom 66%
Légköri nyomás 1016 hPa
Látótávolság 10 km, vagy több
felhőtlen 1500 m magasságban, és nincs gomolyfelhõ

METAR: OSDI 240000Z 13004KT CAVOK 10/04 Q1016

Idő: 03:44 (00:44 UTC)

Előrejelzés

Az előrejelzés 24-én 00 óra UTC és 25-én 06 óra UTC között érvényes
Délnyugati szél 10 kt
Látótávolság 10 km, vagy több
Kevés felhő 3000 lábon
24-én 12 óra UTC és 24-én 18 óra UTC között ideiglenes
Nyugat-délnyugati szél 15 kt
Látótávolság: 8000 m
Kevés felhő 3000 lábon

TAF: OSDI 2400/2506 22010KT 9999 FEW030 TEMPO 2412/2418 24015KT 8000 FEW030

Meteorológiai megfigyelések és előrejelzések több, mint 4000 repülőtéren (METAR és TAF jelentéseket).

A térképen piros és sárga pontok jelzik az elérhető meteorológiai állomásokat.

Mozgassa az egeret a pont fölött, hogy megjelenjen az állomás neve.

Azután kattintson az időjárási megfigyelések és előrejelzések megtekintéséhez.

A térkép megváltoztatása: kattintson a fekete keresztel jelölt zöld gombra ráközelítéshez, a vonallal jelölt zöld gombra távolításhoz, vagy a zöld nyilakra a szomszédos térképek eléréséhez.


METAR-TAF: